createdAt,value
2017-06-27T00:00:08.837Z,69.90
2017-06-27T00:02:36.298Z,70.40
2017-06-27T00:05:03.745Z,70.70
2017-06-27T00:07:31.205Z,70.80
2017-06-27T00:09:58.657Z,70.30
2017-06-27T00:12:26.122Z,70.20
2017-06-27T00:14:53.589Z,70.30
2017-06-27T00:17:21.054Z,70.40
2017-06-27T00:19:48.512Z,70.80
2017-06-27T00:22:16.757Z,71.50
2017-06-27T00:24:44.221Z,71.30
2017-06-27T00:27:11.674Z,71.00
2017-06-27T00:29:39.138Z,71.20
2017-06-27T00:32:06.585Z,71.30
2017-06-27T00:34:34.053Z,71.40
2017-06-27T00:37:01.526Z,71.10
2017-06-27T00:39:28.986Z,71.40
2017-06-27T00:41:56.441Z,71.50
2017-06-27T00:44:23.900Z,71.10
2017-06-27T00:46:51.361Z,70.70
2017-06-27T00:49:18.816Z,70.50
2017-06-27T00:51:46.272Z,70.40
2017-06-27T00:54:13.723Z,70.20
2017-06-27T00:56:41.190Z,70.10
2017-06-27T00:59:08.633Z,70.30
2017-06-27T01:01:36.097Z,70.00
2017-06-27T01:04:03.557Z,69.90
2017-06-27T01:06:31.013Z,69.60
2017-06-27T01:08:58.473Z,69.70
2017-06-27T01:11:25.937Z,69.50
2017-06-27T01:13:53.401Z,69.60
2017-06-27T01:16:20.861Z,69.50
2017-06-27T01:18:48.305Z,69.50
2017-06-27T01:21:15.760Z,69.40
2017-06-27T01:23:43.212Z,69.20
2017-06-27T01:26:10.678Z,68.90
2017-06-27T01:28:38.128Z,68.90
2017-06-27T01:31:05.601Z,69.00
2017-06-27T01:33:33.057Z,69.10
2017-06-27T01:36:00.525Z,68.80
2017-06-27T01:38:27.979Z,68.70
2017-06-27T01:40:55.433Z,69.00
2017-06-27T01:43:22.893Z,69.60
2017-06-27T01:45:50.355Z,69.90
2017-06-27T01:48:17.821Z,70.40
2017-06-27T01:50:45.264Z,70.70
2017-06-27T01:53:12.780Z,70.90
2017-06-27T01:55:40.241Z,70.90
2017-06-27T01:58:07.688Z,71.30
2017-06-27T02:00:35.152Z,71.20
2017-06-27T02:03:02.618Z,70.90
2017-06-27T02:05:30.081Z,70.80
2017-06-27T02:07:57.549Z,70.50
2017-06-27T02:10:25.010Z,70.30
2017-06-27T02:12:52.461Z,70.30
2017-06-27T02:15:19.925Z,70.10
2017-06-27T02:17:47.376Z,70.10
2017-06-27T02:20:14.833Z,69.90
2017-06-27T02:22:42.291Z,70.00
2017-06-27T02:25:09.765Z,69.80
2017-06-27T02:27:37.202Z,69.50
2017-06-27T02:30:04.666Z,69.40
2017-06-27T02:32:32.132Z,69.70
2017-06-27T02:34:59.588Z,69.70
2017-06-27T02:37:27.055Z,70.00
2017-06-27T02:39:54.517Z,70.30
2017-06-27T02:42:21.974Z,70.70
2017-06-27T02:44:49.433Z,70.90
2017-06-27T02:47:16.897Z,70.90
2017-06-27T02:49:44.356Z,71.10
2017-06-27T02:52:11.813Z,71.20
2017-06-27T02:54:39.256Z,71.50
2017-06-27T02:57:06.722Z,71.20
2017-06-27T02:59:34.173Z,71.20
2017-06-27T03:02:01.633Z,71.20
2017-06-27T03:04:29.522Z,71.30
2017-06-27T03:06:56.985Z,71.70
2017-06-27T03:09:24.440Z,71.80
2017-06-27T03:11:52.673Z,72.00
2017-06-27T03:14:20.126Z,71.90
2017-06-27T03:16:47.589Z,72.30
2017-06-27T03:19:15.049Z,72.40
2017-06-27T03:21:42.505Z,72.50
2017-06-27T03:24:09.964Z,72.90
2017-06-27T03:26:37.429Z,72.60
2017-06-27T03:29:04.888Z,72.40
2017-06-27T03:31:32.346Z,72.00
2017-06-27T03:33:59.801Z,71.80
2017-06-27T03:36:27.270Z,71.70
2017-06-27T03:38:54.729Z,71.40
2017-06-27T03:41:22.176Z,71.40
2017-06-27T03:43:49.628Z,71.30
2017-06-27T03:46:17.093Z,71.30
2017-06-27T03:48:44.552Z,71.00
2017-06-27T03:51:11.996Z,70.90
2017-06-27T03:53:39.452Z,71.00
2017-06-27T03:56:06.919Z,71.00
2017-06-27T03:58:34.373Z,71.10
2017-06-27T04:01:01.829Z,71.20
2017-06-27T04:03:29.289Z,71.20
2017-06-27T04:05:56.753Z,70.90
2017-06-27T04:08:24.216Z,70.90
2017-06-27T04:10:51.673Z,70.80
2017-06-27T04:13:19.133Z,70.70
2017-06-27T04:15:46.587Z,70.70
2017-06-27T04:18:14.049Z,70.70
2017-06-27T04:20:41.509Z,71.00
2017-06-27T04:23:08.964Z,70.90
2017-06-27T04:25:36.416Z,70.90
2017-06-27T04:28:03.877Z,70.80
2017-06-27T04:30:31.336Z,70.40
2017-06-27T04:32:58.790Z,70.40
2017-06-27T04:35:26.221Z,70.50
2017-06-27T04:37:53.681Z,70.80
2017-06-27T04:40:21.114Z,71.10
2017-06-27T04:42:48.576Z,71.00
2017-06-27T04:45:16.046Z,70.90
2017-06-27T04:47:43.509Z,70.80
2017-06-27T04:50:10.966Z,70.70
2017-06-27T04:52:38.429Z,70.60
2017-06-27T04:55:05.881Z,70.80
2017-06-27T04:57:33.346Z,70.70
2017-06-27T05:00:00.787Z,70.40
2017-06-27T05:02:28.249Z,69.70
2017-06-27T05:04:55.721Z,69.10
2017-06-27T05:07:23.197Z,68.60
2017-06-27T05:09:50.637Z,68.40
2017-06-27T05:12:18.085Z,68.00
2017-06-27T05:14:45.545Z,67.60
2017-06-27T05:17:13.005Z,67.40
2017-06-27T05:19:40.471Z,67.20
2017-06-27T05:22:07.924Z,67.10
2017-06-27T05:24:35.395Z,66.90
2017-06-27T05:27:02.853Z,66.70
2017-06-27T05:29:30.313Z,66.50
2017-06-27T05:31:57.769Z,65.80
2017-06-27T05:34:25.230Z,65.80
2017-06-27T05:36:52.688Z,65.90
2017-06-27T05:39:20.161Z,65.90
2017-06-27T05:41:47.626Z,65.90
2017-06-27T05:44:15.086Z,66.00
2017-06-27T05:46:42.557Z,66.10
2017-06-27T05:49:10.022Z,65.50
2017-06-27T05:51:37.472Z,65.30
2017-06-27T05:54:04.933Z,65.10
2017-06-27T05:56:32.398Z,64.80
2017-06-27T05:58:59.853Z,64.90
2017-06-27T06:01:27.297Z,64.80
2017-06-27T06:03:54.761Z,64.70
2017-06-27T06:06:22.222Z,64.50
2017-06-27T06:08:49.676Z,64.40
2017-06-27T06:11:17.133Z,64.80
2017-06-27T06:13:44.588Z,65.10
2017-06-27T06:16:12.048Z,65.60
2017-06-27T06:18:39.513Z,65.60
2017-06-27T06:21:07.010Z,65.60
2017-06-27T06:23:34.471Z,65.50
2017-06-27T06:26:01.917Z,65.70
2017-06-27T06:28:29.383Z,65.30
2017-06-27T06:30:56.839Z,65.10
2017-06-27T06:33:24.302Z,64.50
2017-06-27T06:35:51.747Z,63.90
2017-06-27T06:38:19.217Z,63.10
2017-06-27T06:40:46.673Z,62.90
2017-06-27T06:43:14.143Z,62.50
2017-06-27T06:45:41.585Z,62.50
2017-06-27T06:48:09.050Z,62.30
2017-06-27T06:50:36.508Z,61.70
2017-06-27T06:53:03.973Z,61.10
2017-06-27T06:55:31.433Z,61.60
2017-06-27T06:57:58.901Z,62.10
2017-06-27T07:00:26.369Z,61.80
2017-06-27T07:02:53.821Z,61.90
2017-06-27T07:05:21.286Z,61.80
2017-06-27T07:07:48.753Z,62.00
2017-06-27T07:10:16.209Z,62.30
2017-06-27T07:12:43.670Z,62.10
2017-06-27T07:15:11.117Z,61.70
2017-06-27T07:17:38.582Z,61.40
2017-06-27T07:20:06.045Z,61.50
2017-06-27T07:22:33.508Z,61.30
2017-06-27T07:25:00.970Z,60.80
2017-06-27T07:27:28.425Z,60.40
2017-06-27T07:29:55.875Z,59.60
2017-06-27T07:32:23.316Z,59.50
2017-06-27T07:34:50.781Z,59.50
2017-06-27T07:37:18.241Z,59.50
2017-06-27T07:39:45.701Z,59.20
2017-06-27T07:42:13.150Z,59.10
2017-06-27T07:44:40.609Z,58.90
2017-06-27T07:47:08.060Z,58.60
2017-06-27T07:49:35.516Z,58.40
2017-06-27T07:52:03.787Z,58.30
2017-06-27T07:54:31.233Z,58.00
2017-06-27T07:56:58.694Z,57.80
2017-06-27T07:59:26.159Z,57.50
2017-06-27T08:01:53.606Z,57.40
2017-06-27T08:04:21.053Z,56.90
2017-06-27T08:06:49.282Z,57.20
2017-06-27T08:09:16.737Z,57.10
2017-06-27T08:11:44.188Z,57.20
2017-06-27T08:14:11.650Z,57.10
2017-06-27T08:16:39.099Z,57.30
2017-06-27T08:19:06.560Z,57.10
2017-06-27T08:21:34.011Z,57.10
2017-06-27T08:24:01.464Z,57.20
2017-06-27T08:26:28.937Z,57.00
2017-06-27T08:28:56.391Z,56.70
2017-06-27T08:31:23.850Z,57.00
2017-06-27T08:33:51.305Z,57.10
2017-06-27T08:36:18.773Z,57.10
2017-06-27T08:38:46.230Z,57.00
2017-06-27T08:41:13.698Z,57.00
2017-06-27T08:43:41.145Z,57.00
2017-06-27T08:46:08.600Z,57.00
2017-06-27T08:48:36.061Z,56.90
2017-06-27T08:51:03.522Z,57.00
2017-06-27T08:53:30.981Z,57.10
2017-06-27T08:55:58.421Z,57.00
2017-06-27T08:58:25.881Z,57.20
2017-06-27T09:00:53.340Z,57.30
2017-06-27T09:03:20.809Z,57.40
2017-06-27T09:05:48.269Z,57.70
2017-06-27T09:08:15.725Z,57.70
2017-06-27T09:10:43.187Z,58.00
2017-06-27T09:13:10.624Z,58.70
2017-06-27T09:15:38.085Z,59.20
2017-06-27T09:18:05.540Z,60.00
2017-06-27T09:20:33.002Z,60.10
2017-06-27T09:23:00.456Z,60.60
2017-06-27T09:25:27.925Z,61.30
2017-06-27T09:27:55.388Z,62.00
2017-06-27T09:30:22.828Z,61.90
2017-06-27T09:32:50.289Z,62.40
2017-06-27T09:35:17.744Z,62.50
2017-06-27T09:37:45.210Z,62.80
2017-06-27T09:40:12.652Z,63.10
2017-06-27T09:42:40.161Z,63.40
2017-06-27T09:45:07.615Z,63.50
2017-06-27T09:47:35.097Z,63.90
2017-06-27T09:50:03.341Z,64.80
2017-06-27T09:52:31.726Z,64.10
2017-06-27T09:54:59.187Z,64.80
2017-06-27T09:57:26.651Z,65.50
2017-06-27T09:59:54.105Z,65.10
2017-06-27T10:02:21.566Z,64.90
2017-06-27T10:04:49.024Z,64.80
2017-06-27T10:07:16.482Z,65.20
2017-06-27T10:09:43.942Z,64.70
2017-06-27T10:12:11.396Z,65.00
2017-06-27T10:14:38.842Z,65.10
2017-06-27T10:17:06.310Z,65.10
2017-06-27T10:19:33.758Z,65.10
2017-06-27T10:22:02.893Z,65.50
2017-06-27T10:24:31.141Z,67.30
2017-06-27T10:26:58.615Z,67.10
2017-06-27T10:29:26.099Z,67.80
2017-06-27T10:31:53.548Z,69.00
2017-06-27T10:34:21.781Z,68.90
2017-06-27T10:36:49.224Z,68.90
2017-06-27T10:39:16.689Z,69.20
2017-06-27T10:41:44.137Z,70.20
2017-06-27T10:44:11.606Z,70.20
2017-06-27T10:46:39.065Z,70.70
2017-06-27T10:49:06.512Z,71.00
2017-06-27T10:51:33.970Z,71.30
2017-06-27T10:54:01.426Z,71.00
2017-06-27T10:56:28.888Z,71.90
2017-06-27T10:58:56.341Z,71.60
2017-06-27T11:01:23.797Z,71.80
2017-06-27T11:03:51.252Z,71.80
2017-06-27T11:06:18.708Z,71.50
2017-06-27T11:08:46.208Z,71.50
2017-06-27T11:11:13.669Z,71.90
2017-06-27T11:13:41.133Z,71.70
2017-06-27T11:16:08.642Z,71.70
2017-06-27T11:18:36.100Z,72.30
2017-06-27T11:21:03.561Z,72.00
2017-06-27T11:23:31.014Z,72.00
2017-06-27T11:25:58.474Z,71.60
2017-06-27T11:28:25.932Z,71.50
2017-06-27T11:30:53.398Z,71.50
2017-06-27T11:33:20.845Z,71.70
2017-06-27T11:35:48.303Z,72.00
2017-06-27T11:38:15.782Z,71.80
2017-06-27T11:40:43.243Z,71.70
2017-06-27T11:43:10.705Z,71.40
2017-06-27T11:45:38.161Z,71.40
2017-06-27T11:48:05.622Z,71.50
2017-06-27T11:50:33.077Z,71.20
2017-06-27T11:53:00.537Z,71.40
2017-06-27T11:55:27.990Z,71.40
2017-06-27T11:57:55.449Z,71.30
2017-06-27T12:00:34.706Z,71.30
2017-06-27T12:03:02.175Z,71.30
2017-06-27T12:05:41.430Z,70.60
2017-06-27T12:08:09.648Z,69.70
2017-06-27T12:10:37.102Z,69.50
2017-06-27T12:13:04.563Z,69.10
2017-06-27T12:15:32.029Z,68.20
2017-06-27T12:17:59.477Z,66.90
2017-06-27T12:20:26.938Z,66.60
2017-06-27T12:22:54.397Z,66.10
2017-06-27T12:25:21.854Z,66.00
2017-06-27T12:27:49.308Z,65.40
2017-06-27T12:30:16.777Z,64.00
2017-06-27T12:32:44.240Z,64.30
2017-06-27T12:35:11.691Z,63.50
2017-06-27T12:37:39.149Z,62.60
2017-06-27T12:40:06.597Z,61.50
2017-06-27T12:42:34.067Z,60.90
2017-06-27T12:45:01.527Z,60.70
2017-06-27T12:47:28.972Z,60.80
2017-06-27T12:49:56.416Z,60.50
2017-06-27T12:52:23.885Z,59.50
2017-06-27T12:54:51.345Z,59.20
2017-06-27T12:57:18.794Z,58.90
2017-06-27T12:59:46.257Z,58.40
2017-06-27T13:02:13.709Z,56.60
2017-06-27T13:04:41.173Z,56.60
2017-06-27T13:07:08.638Z,56.30
2017-06-27T13:09:36.098Z,57.60
2017-06-27T13:12:03.553Z,57.90
2017-06-27T13:14:31.006Z,58.60
2017-06-27T13:16:58.469Z,59.00
2017-06-27T13:19:25.927Z,59.20
2017-06-27T13:21:53.393Z,59.40
2017-06-27T13:24:20.850Z,59.60
2017-06-27T13:26:48.308Z,59.70
2017-06-27T13:29:15.752Z,59.60
2017-06-27T13:31:43.226Z,60.00
2017-06-27T13:34:10.687Z,59.90
2017-06-27T13:36:38.144Z,60.00
2017-06-27T13:39:05.605Z,59.70
2017-06-27T13:41:33.058Z,59.40
2017-06-27T13:44:00.522Z,59.20
2017-06-27T13:46:27.966Z,59.20
2017-06-27T13:48:55.420Z,58.70
2017-06-27T13:51:22.864Z,58.60
2017-06-27T13:53:50.325Z,58.80
2017-06-27T13:56:17.781Z,58.90
2017-06-27T13:58:45.237Z,59.10
2017-06-27T14:01:12.695Z,59.40
2017-06-27T14:03:40.153Z,59.50
2017-06-27T14:06:07.618Z,59.10
2017-06-27T14:08:35.069Z,59.10
2017-06-27T14:11:02.529Z,58.90
2017-06-27T14:13:29.989Z,59.10
2017-06-27T14:15:57.453Z,59.20
2017-06-27T14:21:01.629Z,59.60
2017-06-27T14:26:05.649Z,59.50
2017-06-27T14:28:33.094Z,59.50
2017-06-27T14:31:00.542Z,59.70
2017-06-27T14:33:28.101Z,59.80
2017-06-27T14:35:55.545Z,60.30
2017-06-27T14:38:23.004Z,60.60
2017-06-27T14:40:50.453Z,60.70
2017-06-27T14:43:17.913Z,60.60
2017-06-27T14:45:45.369Z,60.70
2017-06-27T14:48:12.828Z,61.00
2017-06-27T14:50:40.285Z,61.20
2017-06-27T14:53:07.745Z,61.40
2017-06-27T14:55:35.204Z,61.80
2017-06-27T14:58:02.661Z,62.00
2017-06-27T15:00:30.121Z,62.30
2017-06-27T15:02:57.589Z,62.60
2017-06-27T15:05:25.049Z,62.80
2017-06-27T15:07:52.505Z,63.00
2017-06-27T15:10:19.963Z,63.10
2017-06-27T15:12:47.413Z,63.20
2017-06-27T15:15:14.865Z,63.20
2017-06-27T15:17:42.322Z,63.30
2017-06-27T15:20:09.775Z,63.20
2017-06-27T15:22:37.237Z,63.10
2017-06-27T15:25:04.700Z,63.10
2017-06-27T15:27:32.150Z,63.00
2017-06-27T15:29:59.588Z,62.90
2017-06-27T15:32:27.041Z,62.70
2017-06-27T15:34:54.488Z,62.50
2017-06-27T15:37:22.715Z,61.90
2017-06-27T15:39:50.174Z,61.90
2017-06-27T15:42:17.612Z,61.60
2017-06-27T15:44:45.079Z,61.20
2017-06-27T15:47:12.534Z,60.60
2017-06-27T15:49:40.013Z,60.40
2017-06-27T15:52:07.466Z,60.10
2017-06-27T15:54:34.926Z,59.70
2017-06-27T15:57:02.385Z,59.70
2017-06-27T15:59:29.831Z,58.10
2017-06-27T16:01:57.287Z,57.40
2017-06-27T16:04:24.755Z,56.90
2017-06-27T16:06:52.205Z,57.00
2017-06-27T16:09:19.657Z,56.90
2017-06-27T16:11:47.118Z,57.30
2017-06-27T16:14:14.572Z,57.60
2017-06-27T16:16:42.021Z,57.70
2017-06-27T16:19:09.489Z,58.30
2017-06-27T16:21:36.937Z,58.70
2017-06-27T16:24:04.365Z,59.20
2017-06-27T16:26:32.594Z,59.80
2017-06-27T16:29:00.054Z,59.70
2017-06-27T16:31:27.501Z,59.90
2017-06-27T16:33:54.974Z,60.00
2017-06-27T16:36:22.414Z,60.10
2017-06-27T16:38:49.867Z,60.40
2017-06-27T16:41:17.328Z,60.40
2017-06-27T16:43:44.785Z,60.60
2017-06-27T16:46:12.246Z,60.70
2017-06-27T16:48:39.700Z,60.70
2017-06-27T16:51:07.161Z,61.10
2017-06-27T16:53:34.617Z,61.50
2017-06-27T16:56:02.111Z,62.10
2017-06-27T16:58:29.565Z,62.70
2017-06-27T17:00:57.012Z,63.10
2017-06-27T17:03:24.469Z,63.50
2017-06-27T17:05:51.924Z,63.90
2017-06-27T17:08:19.385Z,64.20
2017-06-27T17:10:46.849Z,64.50
2017-06-27T17:13:14.298Z,64.60
2017-06-27T17:15:41.749Z,64.20
2017-06-27T17:18:09.197Z,64.40
2017-06-27T17:20:36.654Z,64.50
2017-06-27T17:23:04.113Z,64.60
2017-06-27T17:25:31.574Z,64.60
2017-06-27T17:27:59.029Z,64.80
2017-06-27T17:30:26.497Z,64.80
2017-06-27T17:32:53.932Z,65.80
2017-06-27T17:35:21.414Z,67.30
2017-06-27T17:37:48.873Z,69.50
2017-06-27T17:40:16.316Z,71.70
2017-06-27T17:42:43.778Z,72.10
2017-06-27T17:45:11.237Z,73.90
2017-06-27T17:47:38.693Z,74.10
2017-06-27T17:50:06.144Z,74.80
2017-06-27T17:52:33.607Z,75.30
2017-06-27T17:55:01.064Z,75.50
2017-06-27T17:57:28.512Z,75.80
2017-06-27T17:59:55.975Z,75.90
2017-06-27T18:02:23.425Z,76.70
2017-06-27T18:04:50.934Z,76.80
2017-06-27T18:07:18.381Z,77.80
2017-06-27T18:09:45.837Z,78.70
2017-06-27T18:12:13.289Z,79.20
2017-06-27T18:14:40.760Z,79.60
2017-06-27T18:17:08.214Z,80.20
2017-06-27T18:19:35.661Z,80.30
2017-06-27T18:22:04.686Z,80.90
2017-06-27T18:24:32.137Z,81.00
2017-06-27T18:26:59.594Z,80.90
2017-06-27T18:29:27.045Z,80.60
2017-06-27T18:31:54.501Z,81.20
2017-06-27T18:34:21.954Z,81.30
2017-06-27T18:36:49.414Z,81.80
2017-06-27T18:39:16.869Z,82.30
2017-06-27T18:41:44.318Z,82.40
2017-06-27T18:44:11.778Z,82.40
2017-06-27T18:46:39.233Z,82.50
2017-06-27T18:49:06.689Z,83.00
2017-06-27T18:51:34.145Z,82.80
2017-06-27T18:54:01.621Z,83.10
2017-06-27T18:56:29.068Z,83.30
2017-06-27T18:58:56.518Z,83.80
2017-06-27T19:01:23.973Z,83.90
2017-06-27T19:03:51.427Z,83.90
2017-06-27T19:06:18.882Z,84.30
2017-06-27T19:08:46.334Z,84.40
2017-06-27T19:11:13.796Z,84.60
2017-06-27T19:13:41.251Z,84.90
2017-06-27T19:16:08.705Z,85.00
2017-06-27T19:18:36.166Z,85.10
2017-06-27T19:21:03.613Z,85.00
2017-06-27T19:23:31.077Z,85.10
2017-06-27T19:25:58.534Z,85.60
2017-06-27T19:28:25.985Z,85.70
2017-06-27T19:30:53.442Z,85.90
2017-06-27T19:33:20.886Z,86.30
2017-06-27T19:35:49.104Z,87.00
2017-06-27T19:38:16.570Z,86.90
2017-06-27T19:40:44.025Z,88.00
2017-06-27T19:43:11.473Z,88.00
2017-06-27T19:45:38.945Z,88.30
2017-06-27T19:48:06.390Z,88.40
2017-06-27T19:50:33.845Z,88.20
2017-06-27T19:53:01.306Z,88.30
2017-06-27T19:55:28.765Z,88.70
2017-06-27T19:57:56.217Z,89.00
2017-06-27T20:00:23.673Z,89.40
2017-06-27T20:02:51.137Z,89.40
2017-06-27T20:05:18.588Z,89.10
2017-06-27T20:07:46.052Z,89.20
2017-06-27T20:10:13.505Z,89.20
2017-06-27T20:12:40.965Z,89.50
2017-06-27T20:15:08.426Z,89.90
2017-06-27T20:17:35.885Z,89.70
2017-06-27T20:20:03.337Z,89.90
2017-06-27T20:22:30.797Z,89.70
2017-06-27T20:24:58.262Z,89.40
2017-06-27T20:27:25.721Z,89.40
2017-06-27T20:29:53.218Z,89.40
2017-06-27T20:32:20.673Z,89.50
2017-06-27T20:34:48.129Z,89.60
2017-06-27T20:37:15.634Z,89.80
2017-06-27T20:39:43.073Z,89.90
2017-06-27T20:42:10.539Z,90.00
2017-06-27T20:44:37.977Z,90.00
2017-06-27T20:47:06.217Z,90.10
2017-06-27T20:49:33.678Z,90.00
2017-06-27T20:52:01.142Z,90.00
2017-06-27T20:54:28.605Z,90.00
2017-06-27T20:56:56.053Z,90.10
2017-06-27T20:59:23.514Z,90.10
2017-06-27T21:01:51.002Z,90.10
2017-06-27T21:04:18.457Z,90.10
2017-06-27T21:06:45.917Z,90.00
2017-06-27T21:09:14.146Z,90.10
2017-06-27T21:11:41.587Z,90.10
2017-06-27T21:14:09.049Z,90.20
2017-06-27T21:16:36.517Z,90.30
2017-06-27T21:19:03.972Z,90.30
2017-06-27T21:21:31.422Z,90.30
2017-06-27T21:23:58.984Z,90.20
2017-06-27T21:26:26.426Z,90.10
2017-06-27T21:28:53.878Z,90.20
2017-06-27T21:31:21.323Z,90.30
2017-06-27T21:33:48.751Z,90.60
2017-06-27T21:36:16.217Z,90.50
2017-06-27T21:38:43.676Z,90.50
2017-06-27T21:41:11.128Z,90.50
2017-06-27T21:43:38.586Z,90.60
2017-06-27T21:46:06.029Z,90.50
2017-06-27T21:48:33.484Z,90.50
2017-06-27T21:51:00.945Z,90.40
2017-06-27T21:53:28.404Z,90.40
2017-06-27T21:55:55.849Z,90.60
2017-06-27T21:58:23.312Z,90.60
2017-06-27T22:00:50.751Z,90.60
2017-06-27T22:03:18.217Z,90.60
2017-06-27T22:05:45.681Z,90.60
2017-06-27T22:08:13.140Z,90.60
2017-06-27T22:10:40.613Z,90.60
2017-06-27T22:13:08.061Z,90.50
2017-06-27T22:15:35.511Z,90.50
2017-06-27T22:18:02.978Z,90.50
2017-06-27T22:20:30.436Z,90.50
2017-06-27T22:22:57.909Z,90.70
2017-06-27T22:25:25.462Z,90.80
2017-06-27T22:27:52.916Z,90.90
2017-06-27T22:30:20.368Z,90.80
2017-06-27T22:32:47.820Z,90.80
2017-06-27T22:35:18.398Z,90.80
2017-06-27T22:37:45.849Z,90.70
2017-06-27T22:40:13.306Z,90.60
2017-06-27T22:42:40.760Z,90.60
2017-06-27T22:45:08.208Z,90.50
2017-06-27T22:47:35.667Z,90.60
2017-06-27T22:50:03.125Z,90.30
2017-06-27T22:52:30.594Z,90.30
2017-06-27T22:54:58.054Z,90.20
2017-06-27T22:57:26.276Z,90.00
2017-06-27T22:59:53.735Z,90.10
2017-06-27T23:02:21.194Z,90.00
2017-06-27T23:04:48.652Z,89.80
2017-06-27T23:07:16.120Z,89.70
2017-06-27T23:09:43.584Z,89.60
2017-06-27T23:12:11.056Z,89.60
2017-06-27T23:14:38.512Z,89.50
2017-06-27T23:17:05.965Z,89.40
2017-06-27T23:19:33.428Z,89.40
2017-06-27T23:22:00.888Z,89.30
2017-06-27T23:24:28.357Z,89.30
2017-06-27T23:26:55.800Z,89.20
2017-06-27T23:29:23.256Z,89.30
2017-06-27T23:31:50.708Z,89.40
2017-06-27T23:34:18.159Z,89.30
2017-06-27T23:36:45.621Z,89.30
2017-06-27T23:39:13.082Z,89.40
2017-06-27T23:41:40.528Z,89.40
2017-06-27T23:44:07.979Z,89.40
2017-06-27T23:46:35.441Z,89.50
2017-06-27T23:49:02.909Z,89.60
2017-06-27T23:51:30.360Z,89.70
2017-06-27T23:53:57.807Z,89.70
2017-06-27T23:56:25.255Z,89.70
2017-06-27T23:58:52.713Z,89.70
